Terminal Aerodrome Forecast
Issued by NWS

Home | Current Version | Previous Version | Text Only | Print | Product List | Glossary On
Versions: 1 2 3 4 5 6 7 8 9 10 11 12 13 14 15 16
000
FTAK31 PAJN 032300
TAFAWG
TAF
PAWG 032337Z 0400/0424 34005KT P6SM FEW060 SCT150
     FM041100 VRB03KT 5SM BR SCT002
      TEMPO 0412/0416 1SM BR BKN002
     FM041700 34008KT P6SM SKC
      AMD LTD TO CLD VIS AND WIND 0406/0415=

USA.gov is the U.S. government's official web portal to all federal, state and local government web resources and services.